sensor_id;sensor_type;location;lat;lon;timestamp;P1;durP1;ratioP1;P2;durP2;ratioP2
4414;SDS011;2220;42.670;23.398;2022-07-06T00:01:31;19.02;;;16.08;;
4414;SDS011;2220;42.670;23.398;2022-07-06T00:03:56;23.33;;;18.13;;
4414;SDS011;2220;42.670;23.398;2022-07-06T00:06:21;25.27;;;17.30;;
4414;SDS011;2220;42.670;23.398;2022-07-06T00:08:47;28.15;;;19.55;;
4414;SDS011;2220;42.670;23.398;2022-07-06T00:11:12;23.92;;;18.13;;
4414;SDS011;2220;42.670;23.398;2022-07-06T00:13:37;28.25;;;20.85;;
4414;SDS011;2220;42.670;23.398;2022-07-06T00:16:03;29.52;;;21.65;;
4414;SDS011;2220;42.670;23.398;2022-07-06T00:18:28;35.60;;;23.00;;
4414;SDS011;2220;42.670;23.398;2022-07-06T00:20:53;37.72;;;25.25;;
4414;SDS011;2220;42.670;23.398;2022-07-06T00:23:19;34.30;;;23.40;;
4414;SDS011;2220;42.670;23.398;2022-07-06T00:25:44;31.98;;;23.90;;
4414;SDS011;2220;42.670;23.398;2022-07-06T00:28:10;33.72;;;23.20;;
4414;SDS011;2220;42.670;23.398;2022-07-06T00:30:35;35.70;;;23.02;;
4414;SDS011;2220;42.670;23.398;2022-07-06T00:33:00;34.67;;;24.20;;
4414;SDS011;2220;42.670;23.398;2022-07-06T00:35:26;29.55;;;22.42;;
4414;SDS011;2220;42.670;23.398;2022-07-06T00:37:51;32.15;;;22.83;;
4414;SDS011;2220;42.670;23.398;2022-07-06T00:40:16;30.27;;;22.25;;
4414;SDS011;2220;42.670;23.398;2022-07-06T00:42:42;28.83;;;21.60;;
4414;SDS011;2220;42.670;23.398;2022-07-06T00:45:08;32.42;;;21.08;;
4414;SDS011;2220;42.670;23.398;2022-07-06T00:47:34;28.50;;;21.90;;
4414;SDS011;2220;42.670;23.398;2022-07-06T00:50:00;27.13;;;17.38;;
4414;SDS011;2220;42.670;23.398;2022-07-06T00:55:14;32.33;;;20.17;;
4414;SDS011;2220;42.670;23.398;2022-07-06T00:57:40;29.00;;;20.67;;
4414;SDS011;2220;42.670;23.398;2022-07-06T01:00:07;23.10;;;17.92;;
4414;SDS011;2220;42.670;23.398;2022-07-06T01:02:33;31.33;;;18.77;;
4414;SDS011;2220;42.670;23.398;2022-07-06T01:04:58;26.52;;;20.63;;
4414;SDS011;2220;42.670;23.398;2022-07-06T01:07:24;25.15;;;19.95;;
4414;SDS011;2220;42.670;23.398;2022-07-06T01:09:50;24.92;;;21.60;;
4414;SDS011;2220;42.670;23.398;2022-07-06T01:12:15;30.15;;;20.75;;
4414;SDS011;2220;42.670;23.398;2022-07-06T01:14:40;24.20;;;19.20;;
4414;SDS011;2220;42.670;23.398;2022-07-06T01:17:06;27.00;;;19.63;;
4414;SDS011;2220;42.670;23.398;2022-07-06T01:19:32;27.05;;;20.20;;
4414;SDS011;2220;42.670;23.398;2022-07-06T01:21:57;33.53;;;21.17;;
4414;SDS011;2220;42.670;23.398;2022-07-06T01:24:22;29.92;;;20.95;;
4414;SDS011;2220;42.670;23.398;2022-07-06T01:26:48;29.30;;;20.88;;
4414;SDS011;2220;42.670;23.398;2022-07-06T01:29:13;37.60;;;24.25;;
4414;SDS011;2220;42.670;23.398;2022-07-06T01:31:45;37.75;;;24.38;;
4414;SDS011;2220;42.670;23.398;2022-07-06T01:34:10;35.78;;;24.85;;
4414;SDS011;2220;42.670;23.398;2022-07-06T01:36:36;40.30;;;25.30;;
4414;SDS011;2220;42.670;23.398;2022-07-06T01:39:01;39.15;;;27.75;;
4414;SDS011;2220;42.670;23.398;2022-07-06T01:41:26;33.60;;;23.83;;
4414;SDS011;2220;42.670;23.398;2022-07-06T01:43:52;37.95;;;25.52;;
4414;SDS011;2220;42.670;23.398;2022-07-06T01:46:17;45.78;;;32.00;;
4414;SDS011;2220;42.670;23.398;2022-07-06T01:48:44;53.67;;;35.13;;
4414;SDS011;2220;42.670;23.398;2022-07-06T01:51:09;36.88;;;27.30;;
4414;SDS011;2220;42.670;23.398;2022-07-06T01:53:36;44.53;;;32.25;;
4414;SDS011;2220;42.670;23.398;2022-07-06T01:56:02;44.38;;;29.15;;
4414;SDS011;2220;42.670;23.398;2022-07-06T01:58:27;48.75;;;32.08;;
4414;SDS011;2220;42.670;23.398;2022-07-06T02:00:52;50.90;;;31.65;;
4414;SDS011;2220;42.670;23.398;2022-07-06T02:03:18;53.78;;;33.10;;
4414;SDS011;2220;42.670;23.398;2022-07-06T02:05:43;52.67;;;35.45;;
4414;SDS011;2220;42.670;23.398;2022-07-06T02:08:08;46.00;;;28.67;;
4414;SDS011;2220;42.670;23.398;2022-07-06T02:10:34;33.10;;;25.83;;
4414;SDS011;2220;42.670;23.398;2022-07-06T02:12:59;34.60;;;23.40;;
4414;SDS011;2220;42.670;23.398;2022-07-06T02:15:24;32.00;;;23.63;;
4414;SDS011;2220;42.670;23.398;2022-07-06T02:17:49;30.30;;;22.65;;
4414;SDS011;2220;42.670;23.398;2022-07-06T02:20:15;35.85;;;25.33;;
4414;SDS011;2220;42.670;23.398;2022-07-06T02:22:40;31.70;;;22.42;;
4414;SDS011;2220;42.670;23.398;2022-07-06T02:25:06;29.60;;;20.52;;
4414;SDS011;2220;42.670;23.398;2022-07-06T02:27:31;30.77;;;21.48;;
4414;SDS011;2220;42.670;23.398;2022-07-06T02:29:56;27.52;;;19.25;;
4414;SDS011;2220;42.670;23.398;2022-07-06T02:32:22;28.77;;;20.25;;
4414;SDS011;2220;42.670;23.398;2022-07-06T02:34:47;23.60;;;18.17;;
4414;SDS011;2220;42.670;23.398;2022-07-06T02:37:12;21.83;;;14.90;;
4414;SDS011;2220;42.670;23.398;2022-07-06T02:39:37;21.77;;;16.38;;
4414;SDS011;2220;42.670;23.398;2022-07-06T02:42:03;23.60;;;16.63;;
4414;SDS011;2220;42.670;23.398;2022-07-06T02:44:28;18.63;;;14.95;;
4414;SDS011;2220;42.670;23.398;2022-07-06T02:46:53;22.75;;;15.52;;
4414;SDS011;2220;42.670;23.398;2022-07-06T02:49:19;20.83;;;15.18;;
4414;SDS011;2220;42.670;23.398;2022-07-06T02:51:44;18.63;;;13.23;;
4414;SDS011;2220;42.670;23.398;2022-07-06T02:54:09;14.05;;;11.93;;
4414;SDS011;2220;42.670;23.398;2022-07-06T02:56:34;17.20;;;13.25;;
4414;SDS011;2220;42.670;23.398;2022-07-06T02:59:00;20.13;;;14.02;;
4414;SDS011;2220;42.670;23.398;2022-07-06T03:01:25;17.88;;;13.35;;
4414;SDS011;2220;42.670;23.398;2022-07-06T03:03:50;20.13;;;14.77;;
4414;SDS011;2220;42.670;23.398;2022-07-06T03:06:16;21.70;;;17.30;;
4414;SDS011;2220;42.670;23.398;2022-07-06T03:08:41;17.98;;;14.63;;
4414;SDS011;2220;42.670;23.398;2022-07-06T03:11:06;23.52;;;15.70;;
4414;SDS011;2220;42.670;23.398;2022-07-06T03:13:32;20.15;;;12.75;;
4414;SDS011;2220;42.670;23.398;2022-07-06T03:15:57;21.10;;;14.55;;
4414;SDS011;2220;42.670;23.398;2022-07-06T03:18:22;22.90;;;17.65;;
4414;SDS011;2220;42.670;23.398;2022-07-06T03:20:48;24.58;;;16.35;;
4414;SDS011;2220;42.670;23.398;2022-07-06T03:23:13;24.23;;;18.95;;
4414;SDS011;2220;42.670;23.398;2022-07-06T03:25:38;25.95;;;18.98;;
4414;SDS011;2220;42.670;23.398;2022-07-06T03:28:04;49.22;;;33.13;;
4414;SDS011;2220;42.670;23.398;2022-07-06T03:30:29;32.88;;;24.83;;
4414;SDS011;2220;42.670;23.398;2022-07-06T03:32:54;32.13;;;21.27;;
4414;SDS011;2220;42.670;23.398;2022-07-06T03:35:20;29.33;;;20.70;;
4414;SDS011;2220;42.670;23.398;2022-07-06T03:37:45;27.55;;;21.08;;
4414;SDS011;2220;42.670;23.398;2022-07-06T03:40:10;35.15;;;23.63;;
4414;SDS011;2220;42.670;23.398;2022-07-06T03:42:36;31.60;;;22.27;;
4414;SDS011;2220;42.670;23.398;2022-07-06T03:45:02;33.55;;;24.23;;
4414;SDS011;2220;42.670;23.398;2022-07-06T03:47:27;24.98;;;20.65;;
4414;SDS011;2220;42.670;23.398;2022-07-06T03:49:53;24.80;;;18.83;;
4414;SDS011;2220;42.670;23.398;2022-07-06T03:52:18;33.17;;;21.15;;
4414;SDS011;2220;42.670;23.398;2022-07-06T03:54:43;37.05;;;24.40;;
4414;SDS011;2220;42.670;23.398;2022-07-06T03:57:08;38.95;;;23.58;;
4414;SDS011;2220;42.670;23.398;2022-07-06T03:59:34;34.35;;;24.20;;
4414;SDS011;2220;42.670;23.398;2022-07-06T04:01:59;51.97;;;35.25;;
4414;SDS011;2220;42.670;23.398;2022-07-06T04:04:24;52.83;;;34.88;;
4414;SDS011;2220;42.670;23.398;2022-07-06T04:06:50;30.42;;;22.15;;
4414;SDS011;2220;42.670;23.398;2022-07-06T04:09:15;43.80;;;29.08;;
4414;SDS011;2220;42.670;23.398;2022-07-06T04:11:40;33.85;;;21.95;;
4414;SDS011;2220;42.670;23.398;2022-07-06T04:14:06;26.02;;;19.58;;
4414;SDS011;2220;42.670;23.398;2022-07-06T04:16:31;30.05;;;19.95;;
4414;SDS011;2220;42.670;23.398;2022-07-06T04:18:56;22.98;;;17.88;;
4414;SDS011;2220;42.670;23.398;2022-07-06T04:21:22;17.85;;;14.95;;
4414;SDS011;2220;42.670;23.398;2022-07-06T04:23:47;23.13;;;16.67;;
4414;SDS011;2220;42.670;23.398;2022-07-06T04:26:12;19.48;;;14.10;;
4414;SDS011;2220;42.670;23.398;2022-07-06T04:28:37;23.77;;;16.95;;
4414;SDS011;2220;42.670;23.398;2022-07-06T04:31:03;21.95;;;15.50;;
4414;SDS011;2220;42.670;23.398;2022-07-06T04:33:28;23.75;;;15.65;;
4414;SDS011;2220;42.670;23.398;2022-07-06T04:35:53;16.20;;;10.13;;
4414;SDS011;2220;42.670;23.398;2022-07-06T04:38:19;16.00;;;10.02;;
4414;SDS011;2220;42.670;23.398;2022-07-06T04:40:44;17.58;;;8.60;;
4414;SDS011;2220;42.670;23.398;2022-07-06T04:43:11;13.93;;;9.13;;
4414;SDS011;2220;42.670;23.398;2022-07-06T04:45:36;16.15;;;8.73;;
4414;SDS011;2220;42.670;23.398;2022-07-06T04:48:02;10.77;;;8.57;;
4414;SDS011;2220;42.670;23.398;2022-07-06T04:50:28;10.20;;;6.25;;
4414;SDS011;2220;42.670;23.398;2022-07-06T04:52:53;10.82;;;5.80;;
4414;SDS011;2220;42.670;23.398;2022-07-06T04:55:18;12.55;;;9.27;;
4414;SDS011;2220;42.670;23.398;2022-07-06T04:57:43;10.40;;;7.35;;
4414;SDS011;2220;42.670;23.398;2022-07-06T05:00:09;12.93;;;9.95;;
4414;SDS011;2220;42.670;23.398;2022-07-06T05:02:34;12.48;;;8.75;;
4414;SDS011;2220;42.670;23.398;2022-07-06T05:05:00;12.90;;;9.07;;
4414;SDS011;2220;42.670;23.398;2022-07-06T05:07:25;11.63;;;6.90;;
4414;SDS011;2220;42.670;23.398;2022-07-06T05:09:54;8.05;;;5.20;;
4414;SDS011;2220;42.670;23.398;2022-07-06T05:12:19;10.35;;;5.20;;
4414;SDS011;2220;42.670;23.398;2022-07-06T05:14:44;25.42;;;13.45;;
4414;SDS011;2220;42.670;23.398;2022-07-06T05:17:10;11.20;;;6.70;;
4414;SDS011;2220;42.670;23.398;2022-07-06T05:19:35;15.93;;;12.45;;
4414;SDS011;2220;42.670;23.398;2022-07-06T05:22:00;17.70;;;10.18;;
4414;SDS011;2220;42.670;23.398;2022-07-06T05:24:26;9.50;;;6.55;;
4414;SDS011;2220;42.670;23.398;2022-07-06T05:26:51;11.85;;;7.55;;
4414;SDS011;2220;42.670;23.398;2022-07-06T05:29:16;23.02;;;14.45;;
4414;SDS011;2220;42.670;23.398;2022-07-06T05:31:41;23.88;;;14.70;;
4414;SDS011;2220;42.670;23.398;2022-07-06T05:34:07;23.23;;;14.55;;
4414;SDS011;2220;42.670;23.398;2022-07-06T05:36:32;21.83;;;14.63;;
4414;SDS011;2220;42.670;23.398;2022-07-06T05:38:57;22.73;;;14.05;;
4414;SDS011;2220;42.670;23.398;2022-07-06T05:41:23;18.30;;;12.27;;
4414;SDS011;2220;42.670;23.398;2022-07-06T05:43:48;21.35;;;14.68;;
4414;SDS011;2220;42.670;23.398;2022-07-06T05:46:13;17.80;;;10.52;;
4414;SDS011;2220;42.670;23.398;2022-07-06T05:48:38;16.00;;;9.15;;
4414;SDS011;2220;42.670;23.398;2022-07-06T05:51:22;13.77;;;11.32;;
4414;SDS011;2220;42.670;23.398;2022-07-06T05:53:47;20.85;;;11.73;;
4414;SDS011;2220;42.670;23.398;2022-07-06T05:56:13;16.70;;;12.95;;
4414;SDS011;2220;42.670;23.398;2022-07-06T05:58:38;12.98;;;6.13;;
4414;SDS011;2220;42.670;23.398;2022-07-06T06:01:04;15.85;;;12.50;;
4414;SDS011;2220;42.670;23.398;2022-07-06T06:03:29;18.67;;;12.43;;
4414;SDS011;2220;42.670;23.398;2022-07-06T06:05:54;27.13;;;12.30;;
4414;SDS011;2220;42.670;23.398;2022-07-06T06:08:19;20.75;;;12.60;;
4414;SDS011;2220;42.670;23.398;2022-07-06T06:10:45;17.77;;;11.13;;
4414;SDS011;2220;42.670;23.398;2022-07-06T06:13:10;17.13;;;11.45;;
4414;SDS011;2220;42.670;23.398;2022-07-06T06:15:36;15.70;;;10.65;;
4414;SDS011;2220;42.670;23.398;2022-07-06T06:18:01;12.25;;;8.93;;
4414;SDS011;2220;42.670;23.398;2022-07-06T06:20:28;7.40;;;5.97;;
4414;SDS011;2220;42.670;23.398;2022-07-06T06:22:54;16.77;;;11.48;;
4414;SDS011;2220;42.670;23.398;2022-07-06T06:25:21;19.52;;;13.30;;
4414;SDS011;2220;42.670;23.398;2022-07-06T06:27:46;21.70;;;14.10;;
4414;SDS011;2220;42.670;23.398;2022-07-06T06:30:12;16.73;;;11.85;;
4414;SDS011;2220;42.670;23.398;2022-07-06T06:32:38;15.68;;;11.05;;
4414;SDS011;2220;42.670;23.398;2022-07-06T06:35:04;14.05;;;11.50;;
4414;SDS011;2220;42.670;23.398;2022-07-06T06:37:30;13.45;;;11.25;;
4414;SDS011;2220;42.670;23.398;2022-07-06T06:39:55;18.40;;;12.20;;
4414;SDS011;2220;42.670;23.398;2022-07-06T06:42:20;16.55;;;11.85;;
4414;SDS011;2220;42.670;23.398;2022-07-06T06:44:45;18.60;;;10.90;;
4414;SDS011;2220;42.670;23.398;2022-07-06T06:47:11;18.77;;;12.82;;
4414;SDS011;2220;42.670;23.398;2022-07-06T06:49:36;15.68;;;11.48;;
4414;SDS011;2220;42.670;23.398;2022-07-06T06:52:01;15.63;;;11.45;;
4414;SDS011;2220;42.670;23.398;2022-07-06T06:54:27;14.07;;;10.77;;
4414;SDS011;2220;42.670;23.398;2022-07-06T06:56:52;10.45;;;5.85;;
4414;SDS011;2220;42.670;23.398;2022-07-06T06:59:17;19.00;;;13.60;;
4414;SDS011;2220;42.670;23.398;2022-07-06T07:01:42;19.50;;;14.18;;
4414;SDS011;2220;42.670;23.398;2022-07-06T07:04:08;16.75;;;12.20;;
4414;SDS011;2220;42.670;23.398;2022-07-06T07:06:33;14.77;;;10.25;;
4414;SDS011;2220;42.670;23.398;2022-07-06T07:08:59;15.70;;;10.32;;
4414;SDS011;2220;42.670;23.398;2022-07-06T07:11:24;23.92;;;13.00;;
4414;SDS011;2220;42.670;23.398;2022-07-06T07:13:49;20.77;;;11.35;;
4414;SDS011;2220;42.670;23.398;2022-07-06T07:16:15;18.55;;;11.57;;
4414;SDS011;2220;42.670;23.398;2022-07-06T07:18:40;16.48;;;12.57;;
4414;SDS011;2220;42.670;23.398;2022-07-06T07:21:05;17.98;;;12.15;;
4414;SDS011;2220;42.670;23.398;2022-07-06T07:23:30;16.88;;;10.98;;
4414;SDS011;2220;42.670;23.398;2022-07-06T07:25:56;16.73;;;12.80;;
4414;SDS011;2220;42.670;23.398;2022-07-06T07:28:21;11.90;;;9.20;;
4414;SDS011;2220;42.670;23.398;2022-07-06T07:30:46;11.77;;;10.02;;
4414;SDS011;2220;42.670;23.398;2022-07-06T07:33:12;16.40;;;10.80;;
4414;SDS011;2220;42.670;23.398;2022-07-06T07:35:37;11.77;;;10.43;;
4414;SDS011;2220;42.670;23.398;2022-07-06T07:38:02;12.40;;;9.40;;
4414;SDS011;2220;42.670;23.398;2022-07-06T07:40:28;20.88;;;12.70;;
4414;SDS011;2220;42.670;23.398;2022-07-06T07:42:53;15.05;;;12.88;;
4414;SDS011;2220;42.670;23.398;2022-07-06T07:45:18;14.48;;;9.90;;
4414;SDS011;2220;42.670;23.398;2022-07-06T07:47:44;18.58;;;9.80;;
4414;SDS011;2220;42.670;23.398;2022-07-06T07:50:09;15.32;;;11.98;;
4414;SDS011;2220;42.670;23.398;2022-07-06T07:52:34;12.82;;;8.60;;
4414;SDS011;2220;42.670;23.398;2022-07-06T07:55:00;17.27;;;12.02;;
4414;SDS011;2220;42.670;23.398;2022-07-06T07:57:25;13.88;;;9.35;;
4414;SDS011;2220;42.670;23.398;2022-07-06T07:59:50;13.48;;;9.80;;
4414;SDS011;2220;42.670;23.398;2022-07-06T08:02:16;21.35;;;11.98;;
4414;SDS011;2220;42.670;23.398;2022-07-06T08:04:41;18.52;;;12.23;;
4414;SDS011;2220;42.670;23.398;2022-07-06T08:07:06;15.95;;;11.52;;
4414;SDS011;2220;42.670;23.398;2022-07-06T08:09:32;13.20;;;11.07;;
4414;SDS011;2220;42.670;23.398;2022-07-06T08:11:57;14.27;;;11.43;;
4414;SDS011;2220;42.670;23.398;2022-07-06T08:14:23;15.75;;;12.25;;
4414;SDS011;2220;42.670;23.398;2022-07-06T08:16:48;16.88;;;11.95;;
4414;SDS011;2220;42.670;23.398;2022-07-06T08:19:14;9.65;;;8.20;;
4414;SDS011;2220;42.670;23.398;2022-07-06T08:21:40;17.17;;;11.68;;
4414;SDS011;2220;42.670;23.398;2022-07-06T08:24:05;16.27;;;11.18;;
4414;SDS011;2220;42.670;23.398;2022-07-06T08:26:31;18.80;;;10.90;;
4414;SDS011;2220;42.670;23.398;2022-07-06T08:28:56;15.20;;;11.75;;
4414;SDS011;2220;42.670;23.398;2022-07-06T08:31:21;12.60;;;10.90;;
4414;SDS011;2220;42.670;23.398;2022-07-06T08:33:47;15.98;;;11.70;;
4414;SDS011;2220;42.670;23.398;2022-07-06T08:36:13;17.35;;;11.02;;
4414;SDS011;2220;42.670;23.398;2022-07-06T08:38:39;17.65;;;11.77;;
4414;SDS011;2220;42.670;23.398;2022-07-06T08:41:04;18.08;;;11.27;;
4414;SDS011;2220;42.670;23.398;2022-07-06T08:43:31;16.38;;;11.32;;
4414;SDS011;2220;42.670;23.398;2022-07-06T08:45:56;13.60;;;9.98;;
4414;SDS011;2220;42.670;23.398;2022-07-06T08:48:23;13.45;;;9.40;;
4414;SDS011;2220;42.670;23.398;2022-07-06T08:50:49;11.90;;;10.38;;
4414;SDS011;2220;42.670;23.398;2022-07-06T08:53:15;9.68;;;8.50;;
4414;SDS011;2220;42.670;23.398;2022-07-06T08:55:41;10.00;;;9.00;;
4414;SDS011;2220;42.670;23.398;2022-07-06T08:58:06;17.48;;;9.70;;
4414;SDS011;2220;42.670;23.398;2022-07-06T09:00:32;14.30;;;9.93;;
4414;SDS011;2220;42.670;23.398;2022-07-06T09:02:58;16.65;;;10.02;;
4414;SDS011;2220;42.670;23.398;2022-07-06T09:05:23;14.85;;;10.82;;
4414;SDS011;2220;42.670;23.398;2022-07-06T09:07:49;17.58;;;9.75;;
4414;SDS011;2220;42.670;23.398;2022-07-06T09:10:15;12.90;;;10.68;;
4414;SDS011;2220;42.670;23.398;2022-07-06T09:12:41;15.63;;;10.75;;
4414;SDS011;2220;42.670;23.398;2022-07-06T09:15:06;12.93;;;11.55;;
4414;SDS011;2220;42.670;23.398;2022-07-06T09:17:31;13.02;;;9.45;;
4414;SDS011;2220;42.670;23.398;2022-07-06T09:19:57;11.95;;;9.60;;
4414;SDS011;2220;42.670;23.398;2022-07-06T09:22:29;11.40;;;9.98;;
4414;SDS011;2220;42.670;23.398;2022-07-06T09:27:30;46.83;;;29.75;;
4414;SDS011;2220;42.670;23.398;2022-07-06T09:29:59;17.60;;;10.75;;
4414;SDS011;2220;42.670;23.398;2022-07-06T09:32:24;16.88;;;11.45;;
4414;SDS011;2220;42.670;23.398;2022-07-06T09:34:49;14.73;;;11.35;;
4414;SDS011;2220;42.670;23.398;2022-07-06T09:37:15;13.80;;;11.65;;
4414;SDS011;2220;42.670;23.398;2022-07-06T09:39:40;17.13;;;10.95;;
4414;SDS011;2220;42.670;23.398;2022-07-06T09:42:07;14.18;;;11.90;;
4414;SDS011;2220;42.670;23.398;2022-07-06T09:44:39;17.33;;;11.73;;
4414;SDS011;2220;42.670;23.398;2022-07-06T09:47:05;15.77;;;11.25;;
4414;SDS011;2220;42.670;23.398;2022-07-06T09:49:31;12.68;;;9.50;;
4414;SDS011;2220;42.670;23.398;2022-07-06T09:51:58;12.93;;;9.82;;
4414;SDS011;2220;42.670;23.398;2022-07-06T09:54:24;14.57;;;11.50;;
4414;SDS011;2220;42.670;23.398;2022-07-06T09:56:50;16.98;;;11.77;;
4414;SDS011;2220;42.670;23.398;2022-07-06T09:59:16;12.98;;;11.68;;
4414;SDS011;2220;42.670;23.398;2022-07-06T10:01:42;14.38;;;10.18;;
4414;SDS011;2220;42.670;23.398;2022-07-06T10:04:09;14.10;;;11.70;;
4414;SDS011;2220;42.670;23.398;2022-07-06T10:06:35;18.02;;;13.15;;
4414;SDS011;2220;42.670;23.398;2022-07-06T10:09:00;15.27;;;10.90;;
4414;SDS011;2220;42.670;23.398;2022-07-06T10:11:26;18.80;;;12.07;;
4414;SDS011;2220;42.670;23.398;2022-07-06T10:13:54;18.15;;;12.82;;
4414;SDS011;2220;42.670;23.398;2022-07-06T10:16:20;16.92;;;12.95;;
4414;SDS011;2220;42.670;23.398;2022-07-06T10:18:46;17.25;;;11.10;;
4414;SDS011;2220;42.670;23.398;2022-07-06T10:21:12;15.80;;;13.80;;
4414;SDS011;2220;42.670;23.398;2022-07-06T10:23:37;13.65;;;11.98;;
4414;SDS011;2220;42.670;23.398;2022-07-06T10:26:03;16.17;;;13.43;;
4414;SDS011;2220;42.670;23.398;2022-07-06T10:28:29;14.90;;;12.32;;
4414;SDS011;2220;42.670;23.398;2022-07-06T10:30:54;14.27;;;12.43;;
4414;SDS011;2220;42.670;23.398;2022-07-06T10:33:20;18.58;;;12.88;;
4414;SDS011;2220;42.670;23.398;2022-07-06T10:35:46;11.43;;;6.18;;
4414;SDS011;2220;42.670;23.398;2022-07-06T10:38:12;16.42;;;11.63;;
4414;SDS011;2220;42.670;23.398;2022-07-06T10:40:38;15.38;;;12.10;;
4414;SDS011;2220;42.670;23.398;2022-07-06T10:43:22;17.30;;;12.75;;
4414;SDS011;2220;42.670;23.398;2022-07-06T10:50:53;13.50;;;11.75;;
4414;SDS011;2220;42.670;23.398;2022-07-06T10:53:23;13.65;;;12.25;;
4414;SDS011;2220;42.670;23.398;2022-07-06T10:55:49;19.15;;;11.35;;
4414;SDS011;2220;42.670;23.398;2022-07-06T11:01:00;8.60;;;6.55;;
4414;SDS011;2220;42.670;23.398;2022-07-06T11:03:32;12.95;;;9.50;;
4414;SDS011;2220;42.670;23.398;2022-07-06T11:06:02;13.13;;;10.20;;
4414;SDS011;2220;42.670;23.398;2022-07-06T11:11:14;14.35;;;11.65;;
4414;SDS011;2220;42.670;23.398;2022-07-06T11:13:42;14.85;;;12.25;;
4414;SDS011;2220;42.670;23.398;2022-07-06T11:16:07;14.43;;;12.90;;
4414;SDS011;2220;42.670;23.398;2022-07-06T11:18:39;14.95;;;13.23;;
4414;SDS011;2220;42.670;23.398;2022-07-06T11:21:18;16.40;;;12.57;;
4414;SDS011;2220;42.670;23.398;2022-07-06T11:23:45;12.63;;;10.88;;
4414;SDS011;2220;42.670;23.398;2022-07-06T11:26:10;9.18;;;8.02;;
4414;SDS011;2220;42.670;23.398;2022-07-06T11:28:37;11.18;;;9.98;;
4414;SDS011;2220;42.670;23.398;2022-07-06T11:31:02;13.25;;;11.95;;
4414;SDS011;2220;42.670;23.398;2022-07-06T11:33:28;13.18;;;11.85;;
4414;SDS011;2220;42.670;23.398;2022-07-06T11:36:10;14.52;;;12.10;;
4414;SDS011;2220;42.670;23.398;2022-07-06T11:38:36;12.90;;;11.52;;
4414;SDS011;2220;42.670;23.398;2022-07-06T11:41:01;16.30;;;14.05;;
4414;SDS011;2220;42.670;23.398;2022-07-06T11:43:26;17.55;;;13.05;;
4414;SDS011;2220;42.670;23.398;2022-07-06T11:45:51;13.93;;;12.52;;
4414;SDS011;2220;42.670;23.398;2022-07-06T11:48:17;16.77;;;12.23;;
4414;SDS011;2220;42.670;23.398;2022-07-06T11:50:42;13.38;;;10.90;;
4414;SDS011;2220;42.670;23.398;2022-07-06T11:53:07;14.27;;;12.10;;
4414;SDS011;2220;42.670;23.398;2022-07-06T11:55:33;7.25;;;6.55;;
4414;SDS011;2220;42.670;23.398;2022-07-06T11:57:58;13.60;;;10.73;;
4414;SDS011;2220;42.670;23.398;2022-07-06T12:00:25;9.25;;;8.40;;
4414;SDS011;2220;42.670;23.398;2022-07-06T12:03:02;12.70;;;11.38;;
4414;SDS011;2220;42.670;23.398;2022-07-06T12:05:30;13.77;;;11.68;;
4414;SDS011;2220;42.670;23.398;2022-07-06T12:08:05;14.80;;;12.00;;
4414;SDS011;2220;42.670;23.398;2022-07-06T12:10:34;13.10;;;11.73;;
4414;SDS011;2220;42.670;23.398;2022-07-06T12:13:03;11.13;;;10.00;;
4414;SDS011;2220;42.670;23.398;2022-07-06T12:15:28;12.27;;;10.85;;
4414;SDS011;2220;42.670;23.398;2022-07-06T12:17:54;12.77;;;11.02;;
4414;SDS011;2220;42.670;23.398;2022-07-06T12:20:19;24.38;;;14.23;;
4414;SDS011;2220;42.670;23.398;2022-07-06T12:22:44;14.45;;;12.65;;
4414;SDS011;2220;42.670;23.398;2022-07-06T12:25:10;12.35;;;11.13;;
4414;SDS011;2220;42.670;23.398;2022-07-06T12:27:35;10.23;;;9.20;;
4414;SDS011;2220;42.670;23.398;2022-07-06T12:30:10;10.25;;;7.70;;
4414;SDS011;2220;42.670;23.398;2022-07-06T12:32:35;15.35;;;9.90;;
4414;SDS011;2220;42.670;23.398;2022-07-06T12:35:08;12.13;;;10.90;;
4414;SDS011;2220;42.670;23.398;2022-07-06T12:37:34;14.27;;;10.32;;
4414;SDS011;2220;42.670;23.398;2022-07-06T12:39:59;11.85;;;10.65;;
4414;SDS011;2220;42.670;23.398;2022-07-06T12:42:25;10.85;;;9.85;;
4414;SDS011;2220;42.670;23.398;2022-07-06T12:44:51;7.25;;;6.53;;
4414;SDS011;2220;42.670;23.398;2022-07-06T12:47:18;9.63;;;8.73;;
4414;SDS011;2220;42.670;23.398;2022-07-06T12:49:43;9.50;;;8.50;;
4414;SDS011;2220;42.670;23.398;2022-07-06T12:52:12;10.02;;;9.02;;
4414;SDS011;2220;42.670;23.398;2022-07-06T12:54:42;12.15;;;9.18;;
4414;SDS011;2220;42.670;23.398;2022-07-06T13:02:45;12.55;;;8.32;;
4414;SDS011;2220;42.670;23.398;2022-07-06T13:07:29;9.55;;;7.88;;
4414;SDS011;2220;42.670;23.398;2022-07-06T13:09:57;10.35;;;7.65;;
4414;SDS011;2220;42.670;23.398;2022-07-06T13:12:22;8.32;;;7.45;;
4414;SDS011;2220;42.670;23.398;2022-07-06T13:14:48;6.97;;;6.28;;
4414;SDS011;2220;42.670;23.398;2022-07-06T13:17:14;6.43;;;4.53;;
4414;SDS011;2220;42.670;23.398;2022-07-06T13:19:39;7.82;;;7.03;;
4414;SDS011;2220;42.670;23.398;2022-07-06T13:22:04;3.63;;;3.17;;
4414;SDS011;2220;42.670;23.398;2022-07-06T13:24:30;7.57;;;5.60;;
4414;SDS011;2220;42.670;23.398;2022-07-06T13:26:55;8.57;;;6.40;;
4414;SDS011;2220;42.670;23.398;2022-07-06T13:29:21;7.85;;;5.50;;
4414;SDS011;2220;42.670;23.398;2022-07-06T13:31:46;8.20;;;5.25;;
4414;SDS011;2220;42.670;23.398;2022-07-06T13:34:12;7.97;;;5.85;;
4414;SDS011;2220;42.670;23.398;2022-07-06T13:36:38;16.98;;;12.48;;
4414;SDS011;2220;42.670;23.398;2022-07-06T13:39:03;22.15;;;14.98;;
4414;SDS011;2220;42.670;23.398;2022-07-06T13:41:32;5.95;;;5.45;;
4414;SDS011;2220;42.670;23.398;2022-07-06T13:43:57;8.48;;;4.90;;
4414;SDS011;2220;42.670;23.398;2022-07-06T13:46:25;4.78;;;4.28;;
4414;SDS011;2220;42.670;23.398;2022-07-06T13:48:51;4.47;;;4.10;;
4414;SDS011;2220;42.670;23.398;2022-07-06T13:51:17;2.67;;;2.47;;
4414;SDS011;2220;42.670;23.398;2022-07-06T13:53:42;2.03;;;1.80;;
4414;SDS011;2220;42.670;23.398;2022-07-06T13:56:08;2.22;;;1.90;;
4414;SDS011;2220;42.670;23.398;2022-07-06T13:58:33;2.63;;;2.42;;
4414;SDS011;2220;42.670;23.398;2022-07-06T14:00:58;5.00;;;2.72;;
4414;SDS011;2220;42.670;23.398;2022-07-06T14:03:24;3.20;;;2.90;;
4414;SDS011;2220;42.670;23.398;2022-07-06T14:05:54;3.30;;;2.75;;
4414;SDS011;2220;42.670;23.398;2022-07-06T14:08:20;4.43;;;2.60;;
4414;SDS011;2220;42.670;23.398;2022-07-06T14:10:45;3.10;;;1.90;;
4414;SDS011;2220;42.670;23.398;2022-07-06T14:13:10;3.40;;;2.30;;
4414;SDS011;2220;42.670;23.398;2022-07-06T14:15:35;4.25;;;2.08;;
4414;SDS011;2220;42.670;23.398;2022-07-06T14:18:01;4.50;;;2.47;;
4414;SDS011;2220;42.670;23.398;2022-07-06T14:20:26;3.05;;;2.65;;
4414;SDS011;2220;42.670;23.398;2022-07-06T14:22:51;5.40;;;2.65;;
4414;SDS011;2220;42.670;23.398;2022-07-06T14:25:17;2.78;;;2.17;;
4414;SDS011;2220;42.670;23.398;2022-07-06T14:27:42;4.53;;;2.28;;
4414;SDS011;2220;42.670;23.398;2022-07-06T14:30:08;2.38;;;2.10;;
4414;SDS011;2220;42.670;23.398;2022-07-06T14:32:34;1.83;;;1.73;;
4414;SDS011;2220;42.670;23.398;2022-07-06T14:34:59;4.57;;;1.77;;
4414;SDS011;2220;42.670;23.398;2022-07-06T14:37:24;4.10;;;3.67;;
4414;SDS011;2220;42.670;23.398;2022-07-06T14:39:50;2.35;;;2.10;;
4414;SDS011;2220;42.670;23.398;2022-07-06T14:42:15;1.83;;;1.73;;
4414;SDS011;2220;42.670;23.398;2022-07-06T14:44:41;1.52;;;1.50;;
4414;SDS011;2220;42.670;23.398;2022-07-06T14:47:06;1.83;;;1.73;;
4414;SDS011;2220;42.670;23.398;2022-07-06T14:49:31;3.15;;;1.80;;
4414;SDS011;2220;42.670;23.398;2022-07-06T14:51:57;2.95;;;1.70;;
4414;SDS011;2220;42.670;23.398;2022-07-06T14:54:23;3.40;;;2.00;;
4414;SDS011;2220;42.670;23.398;2022-07-06T14:56:48;5.13;;;1.80;;